Time;durP1;ratioP1;P1;durP2;ratioP2;P2;SDS_P1;SDS_P2;PMS_P1;PMS_P2;Temp;Humidity;BMP_temperature;BMP_pressure;BME280_temperature;BME280_humidity;BME280_pressure;Samples;Min_cycle;Max_cycle;Signal;HPM_P1;HPM_P2
2023/04/20 00:01:37;;;;;;;23.75;19.05;;;4.80;99.90;;;;;;5053723;28;20033;-55
2023/04/20 00:04:03;;;;;;;21.83;17.95;;;4.70;99.90;;;;;;5054009;28;20480;-58
2023/04/20 00:06:31;;;;;;;24.15;18.20;;;4.80;99.90;;;;;;5053816;28;20078;-55
2023/04/20 00:08:56;;;;;;;24.52;17.55;;;4.80;99.90;;;;;;5054075;28;20100;-56
2023/04/20 00:11:22;;;;;;;24.65;17.95;;;4.80;99.90;;;;;;5053679;28;20108;-59
2023/04/20 00:13:48;;;;;;;22.95;18.35;;;4.80;99.90;;;;;;5053740;28;20044;-58
2023/04/20 00:16:13;;;;;;;25.52;19.42;;;4.80;99.90;;;;;;5053560;28;20029;-56
2023/04/20 00:18:39;;;;;;;21.08;17.65;;;4.80;99.90;;;;;;5053592;28;20047;-55
2023/04/20 00:21:05;;;;;;;20.55;17.17;;;4.80;99.90;;;;;;5053633;28;20027;-59
2023/04/20 00:23:31;;;;;;;22.92;17.27;;;4.90;99.90;;;;;;5053569;28;20021;-57
2023/04/20 00:25:56;;;;;;;22.85;18.75;;;4.90;99.90;;;;;;5053654;28;20456;-57
2023/04/20 00:28:22;;;;;;;21.88;18.20;;;4.80;99.90;;;;;;5053348;28;20013;-56
2023/04/20 00:30:48;;;;;;;20.52;16.38;;;4.90;99.90;;;;;;5053390;28;20104;-56
2023/04/20 00:33:13;;;;;;;22.02;17.92;;;4.90;99.90;;;;;;5053299;28;20029;-56
2023/04/20 00:35:39;;;;;;;22.48;17.95;;;4.80;99.90;;;;;;5053300;28;20044;-56
2023/04/20 00:38:05;;;;;;;23.23;18.85;;;4.80;99.90;;;;;;5053494;28;20330;-58
2023/04/20 00:40:30;;;;;;;24.00;17.05;;;4.80;99.90;;;;;;5053117;28;20028;-55
2023/04/20 00:42:56;;;;;;;25.60;17.23;;;4.80;99.90;;;;;;5053263;28;20033;-57
2023/04/20 00:45:22;;;;;;;22.00;17.45;;;4.80;99.90;;;;;;5052857;28;20372;-52
2023/04/20 00:47:48;;;;;;;25.05;18.08;;;4.80;99.90;;;;;;5052927;28;20104;-56
2023/04/20 00:50:14;;;;;;;25.13;18.77;;;4.70;99.90;;;;;;5052953;28;20025;-56
2023/04/20 00:52:41;;;;;;;24.95;19.23;;;4.60;99.90;;;;;;5052990;28;20032;-55
2023/04/20 00:55:07;;;;;;;24.38;19.02;;;4.70;99.90;;;;;;5052979;28;20029;-58
2023/04/20 00:57:33;;;;;;;23.85;19.33;;;4.70;99.90;;;;;;5052830;28;20090;-59
2023/04/20 01:00:00;;;;;;;25.10;20.08;;;4.80;99.90;;;;;;5052708;28;20098;-54
2023/04/20 01:02:26;;;;;;;24.60;18.98;;;4.80;99.90;;;;;;5052640;28;20033;-56
2023/04/20 01:04:53;;;;;;;27.58;20.20;;;4.80;99.90;;;;;;5052854;28;20053;-58
2023/04/20 01:07:19;;;;;;;21.83;18.20;;;4.80;99.90;;;;;;5052169;28;20503;-58
2023/04/20 01:09:44;;;;;;;27.02;18.83;;;4.80;99.90;;;;;;5052507;28;20029;-58
2023/04/20 01:12:10;;;;;;;25.67;19.92;;;4.80;99.90;;;;;;5052488;28;20021;-55
2023/04/20 01:14:36;;;;;;;27.15;20.48;;;4.70;99.90;;;;;;5052200;28;20075;-55
2023/04/20 01:17:04;;;;;;;29.10;19.95;;;4.80;99.90;;;;;;5052633;28;20044;-59
2023/04/20 01:19:31;;;;;;;28.25;21.08;;;4.80;99.90;;;;;;5052391;28;20460;-54
2023/04/20 01:21:57;;;;;;;31.08;22.20;;;4.80;99.90;;;;;;5052806;28;20109;-58
2023/04/20 01:24:23;;;;;;;27.17;20.30;;;4.80;99.90;;;;;;5052149;28;20100;-56
2023/04/20 01:26:48;;;;;;;29.00;21.20;;;4.80;99.90;;;;;;5052012;28;20037;-56
2023/04/20 01:29:14;;;;;;;28.38;21.00;;;4.70;99.90;;;;;;5052034;28;20033;-55
2023/04/20 01:31:40;;;;;;;27.48;21.27;;;4.80;99.90;;;;;;5052270;28;20076;-56
2023/04/20 01:34:05;;;;;;;27.70;21.52;;;4.80;99.90;;;;;;5052040;28;20360;-59
2023/04/20 01:36:32;;;;;;;25.38;19.75;;;4.80;99.90;;;;;;5051881;28;20082;-57
2023/04/20 01:38:58;;;;;;;27.75;20.88;;;4.80;99.90;;;;;;5052158;28;20052;-55
2023/04/20 01:41:24;;;;;;;28.88;21.35;;;4.70;99.90;;;;;;5051668;28;20451;-58
2023/04/20 01:43:50;;;;;;;28.60;21.30;;;4.70;99.90;;;;;;5051819;28;20116;-55
2023/04/20 01:46:15;;;;;;;32.15;21.88;;;4.70;99.90;;;;;;5051639;28;20467;-56
2023/04/20 01:48:41;;;;;;;27.83;20.02;;;4.70;99.90;;;;;;5051615;28;20025;-57
2023/04/20 01:51:08;;;;;;;31.73;21.70;;;4.70;99.90;;;;;;5051690;28;20029;-59
2023/04/20 01:53:34;;;;;;;28.08;19.58;;;4.80;99.90;;;;;;5051949;28;20060;-59
2023/04/20 01:55:59;;;;;;;29.75;21.52;;;4.80;99.90;;;;;;5051981;28;20445;-58
2023/04/20 01:58:25;;;;;;;29.95;20.15;;;4.70;99.90;;;;;;5051097;28;20422;-57
2023/04/20 02:00:51;;;;;;;29.80;20.50;;;4.70;99.90;;;;;;5051488;28;20031;-60
2023/04/20 02:03:16;;;;;;;26.98;19.92;;;4.70;99.90;;;;;;5051695;28;20024;-56
2023/04/20 02:05:42;;;;;;;26.67;19.30;;;4.70;99.90;;;;;;5051726;28;20025;-59
2023/04/20 02:08:08;;;;;;;25.88;19.15;;;4.80;99.90;;;;;;5051703;28;20488;-58
2023/04/20 02:10:33;;;;;;;22.92;16.98;;;4.80;99.90;;;;;;5051571;28;20447;-58
2023/04/20 02:12:59;;;;;;;24.50;17.25;;;4.70;99.90;;;;;;5051666;28;20136;-57
2023/04/20 02:15:24;;;;;;;22.35;17.52;;;4.70;99.90;;;;;;5051450;28;20029;-54
2023/04/20 02:17:53;;;;;;;21.15;17.08;;;4.60;99.90;;;;;;5051580;28;20029;-55
2023/04/20 02:20:19;;;;;;;21.77;15.45;;;4.60;99.90;;;;;;5051606;28;20025;-56
2023/04/20 02:22:45;;;;;;;17.23;13.35;;;4.60;99.90;;;;;;5051387;28;20025;-54
2023/04/20 02:25:11;;;;;;;22.83;15.93;;;4.60;99.70;;;;;;5051313;28;20111;-56
2023/04/20 02:27:37;;;;;;;18.40;13.63;;;4.60;99.50;;;;;;5051597;28;20017;-58
2023/04/20 02:30:03;;;;;;;16.30;12.95;;;4.50;98.80;;;;;;5051487;28;20025;-53
2023/04/20 02:32:29;;;;;;;15.57;11.98;;;4.50;97.90;;;;;;5051417;28;20032;-59
2023/04/20 02:34:54;;;;;;;15.50;11.35;;;4.50;97.60;;;;;;5050219;28;20522;-59
2023/04/20 02:37:20;;;;;;;15.88;12.23;;;4.50;97.30;;;;;;5060993;28;20029;-59
2023/04/20 02:39:46;;;;;;;20.65;13.45;;;4.50;97.80;;;;;;5071278;28;20071;-56
2023/04/20 02:42:11;;;;;;;17.52;13.38;;;4.50;97.70;;;;;;5071143;28;20025;-59
2023/04/20 02:44:37;;;;;;;16.80;12.60;;;4.50;97.30;;;;;;5070970;28;20117;-56
2023/04/20 02:47:03;;;;;;;18.17;12.45;;;4.50;97.30;;;;;;5071119;28;20024;-59
2023/04/20 02:49:28;;;;;;;16.15;12.00;;;4.40;96.20;;;;;;5071239;28;20032;-54
2023/04/20 02:51:54;;;;;;;16.48;12.65;;;4.30;95.90;;;;;;5071115;28;20043;-57
2023/04/20 02:54:20;;;;;;;21.77;14.15;;;4.30;96.00;;;;;;5070726;28;20118;-59
2023/04/20 02:56:51;;;;;;;20.85;14.00;;;4.20;97.00;;;;;;5071563;28;20488;-54
2023/04/20 02:59:17;;;;;;;18.63;14.32;;;4.20;97.10;;;;;;5070543;28;20055;-60
2023/04/20 03:01:42;;;;;;;17.05;13.02;;;4.10;97.10;;;;;;5070817;28;20025;-55
2023/04/20 03:04:08;;;;;;;19.50;13.65;;;4.20;97.60;;;;;;5070554;28;20036;-57
2023/04/20 03:06:35;;;;;;;16.08;12.07;;;4.20;96.50;;;;;;5071138;28;20025;-54
2023/04/20 03:09:01;;;;;;;16.30;12.80;;;4.00;94.90;;;;;;5070987;28;20384;-59
2023/04/20 03:11:26;;;;;;;16.95;13.02;;;4.00;95.00;;;;;;5073559;28;20029;-58
2023/04/20 03:13:52;;;;;;;18.13;13.65;;;4.00;94.70;;;;;;5074801;28;20024;-57
2023/04/20 03:16:18;;;;;;;20.90;14.98;;;3.90;95.40;;;;;;5073515;28;20039;-59
2023/04/20 03:18:43;;;;;;;23.05;15.20;;;3.90;96.60;;;;;;5074750;28;20025;-58
2023/04/20 03:21:09;;;;;;;21.00;15.35;;;3.90;96.50;;;;;;5074648;28;20036;-56
2023/04/20 03:23:35;;;;;;;22.15;16.75;;;3.90;96.20;;;;;;5074571;28;20025;-57
2023/04/20 03:26:00;;;;;;;20.77;16.13;;;4.00;96.60;;;;;;5074872;28;20356;-60
2023/04/20 03:28:26;;;;;;;24.13;16.95;;;4.00;95.90;;;;;;5074578;28;20024;-59
2023/04/20 03:30:52;;;;;;;24.20;17.25;;;4.00;97.00;;;;;;5074655;28;20473;-56
2023/04/20 03:33:17;;;;;;;27.70;18.40;;;4.10;96.50;;;;;;5074437;28;20503;-57
2023/04/20 03:35:43;;;;;;;28.50;18.52;;;4.00;95.70;;;;;;5074480;28;20116;-57
2023/04/20 03:38:09;;;;;;;28.70;20.30;;;4.00;96.00;;;;;;5074410;28;20044;-60
2023/04/20 03:40:35;;;;;;;27.35;19.40;;;3.90;96.60;;;;;;5074350;28;20471;-53
2023/04/20 03:43:00;;;;;;;30.05;21.05;;;3.90;97.00;;;;;;5074394;28;20029;-55
2023/04/20 03:45:26;;;;;;;33.30;19.35;;;3.90;97.80;;;;;;5074187;28;20111;-53
2023/04/20 03:47:52;;;;;;;30.08;20.77;;;3.90;97.20;;;;;;5074276;28;20047;-58
2023/04/20 03:50:39;;;;;;;27.40;19.27;;;3.90;97.90;;;;;;5074390;28;20047;-55
2023/04/20 03:53:05;;;;;;;28.98;19.75;;;4.00;97.90;;;;;;5074263;28;20444;-54
2023/04/20 03:55:30;;;;;;;30.83;20.70;;;3.90;97.60;;;;;;5074060;28;20104;-57
2023/04/20 03:57:56;;;;;;;29.23;20.88;;;4.00;97.70;;;;;;5074199;28;20067;-54
2023/04/20 04:00:22;;;;;;;32.78;20.80;;;4.00;97.90;;;;;;5073544;28;20080;-56
2023/04/20 04:02:47;;;;;;;36.95;20.85;;;4.00;97.90;;;;;;5073983;28;20048;-55
2023/04/20 04:05:16;;;;;;;30.02;20.48;;;4.00;98.10;;;;;;5073870;28;20360;-57
2023/04/20 04:07:41;;;;;;;27.55;19.70;;;4.00;98.40;;;;;;5074283;28;20070;-55
2023/04/20 04:10:08;;;;;;;28.05;19.58;;;4.00;98.70;;;;;;5074280;28;20048;-59
2023/04/20 04:12:34;;;;;;;33.72;20.55;;;4.00;99.20;;;;;;5074191;28;20040;-59
2023/04/20 04:15:00;;;;;;;33.35;23.05;;;4.00;99.00;;;;;;5074126;28;20029;-55
2023/04/20 04:17:25;;;;;;;32.65;20.63;;;4.00;99.60;;;;;;5073580;28;20082;-54
2023/04/20 04:19:51;;;;;;;29.42;19.25;;;4.00;99.90;;;;;;5073585;28;20474;-59
2023/04/20 04:22:16;;;;;;;32.92;20.38;;;4.00;99.70;;;;;;5072491;28;20029;-57
2023/04/20 04:24:42;;;;;;;26.45;19.23;;;4.00;99.90;;;;;;5073406;28;20538;-59
2023/04/20 04:27:09;;;;;;;31.05;20.15;;;4.00;99.90;;;;;;5073562;28;20484;-57
2023/04/20 04:29:37;;;;;;;25.38;19.30;;;4.00;99.90;;;;;;5073453;28;20020;-55
2023/04/20 04:32:04;;;;;;;25.60;18.50;;;4.00;99.90;;;;;;5073259;28;20056;-59
2023/04/20 04:34:32;;;;;;;26.80;19.83;;;3.90;99.30;;;;;;5072513;28;20028;-58
2023/04/20 04:36:58;;;;;;;25.65;18.77;;;4.00;99.50;;;;;;5072406;28;20430;-57
2023/04/20 04:39:25;;;;;;;24.42;19.10;;;4.00;98.80;;;;;;5072209;28;20028;-56
2023/04/20 04:41:51;;;;;;;25.67;18.73;;;4.00;98.90;;;;;;5073017;28;20109;-52
2023/04/20 04:44:17;;;;;;;27.60;18.48;;;4.00;99.00;;;;;;5072492;28;20021;-55
2023/04/20 04:46:46;;;;;;;26.52;19.02;;;4.00;99.10;;;;;;5072426;28;20056;-57
2023/04/20 04:49:12;;;;;;;29.58;19.25;;;4.00;99.30;;;;;;5072118;28;20016;-55
2023/04/20 04:51:37;;;;;;;29.40;20.23;;;3.90;98.50;;;;;;5072513;28;20112;-55
2023/04/20 04:54:03;;;;;;;27.58;19.60;;;4.00;98.60;;;;;;5073144;28;20020;-56
2023/04/20 04:56:29;;;;;;;28.95;18.77;;;4.00;98.80;;;;;;5071272;28;20032;-56
2023/04/20 04:58:54;;;;;;;26.00;20.25;;;4.00;98.50;;;;;;5069563;28;20051;-56
2023/04/20 05:01:20;;;;;;;26.60;18.65;;;4.00;98.40;;;;;;5071021;28;20025;-55
2023/04/20 05:03:46;;;;;;;25.85;18.90;;;4.00;99.10;;;;;;5072476;28;20024;-55
2023/04/20 05:06:11;;;;;;;29.25;18.65;;;4.00;99.10;;;;;;5072296;28;20080;-58
2023/04/20 05:08:37;;;;;;;37.15;21.90;;;4.00;98.40;;;;;;5072554;28;20017;-58
2023/04/20 05:11:03;;;;;;;345.08;186.07;;;4.00;98.70;;;;;;5072659;28;20035;-57
2023/04/20 05:13:28;;;;;;;1108.93;594.00;;;4.10;98.70;;;;;;5072218;28;20142;-57
2023/04/20 05:15:54;;;;;;;452.17;259.20;;;4.10;98.70;;;;;;5072086;28;20028;-55
2023/04/20 05:18:20;;;;;;;367.80;247.60;;;4.10;98.50;;;;;;5072302;28;20020;-59
2023/04/20 05:20:46;;;;;;;155.82;111.30;;;4.10;98.30;;;;;;5072291;28;20107;-58
2023/04/20 05:23:11;;;;;;;128.15;85.00;;;4.10;97.80;;;;;;5072155;28;20123;-57
2023/04/20 05:25:37;;;;;;;77.13;50.58;;;4.10;97.80;;;;;;5072155;28;20467;-56
2023/04/20 05:28:03;;;;;;;93.82;63.83;;;4.10;97.80;;;;;;5072285;28;20123;-56
2023/04/20 05:30:29;;;;;;;39.00;26.83;;;4.10;98.20;;;;;;5071926;28;20093;-56
2023/04/20 05:32:54;;;;;;;40.85;26.15;;;4.10;98.30;;;;;;5070525;28;20028;-55
2023/04/20 05:35:20;;;;;;;33.35;26.05;;;4.10;98.40;;;;;;5071896;28;20029;-57
2023/04/20 05:37:46;;;;;;;27.63;21.23;;;4.10;98.40;;;;;;5072145;28;20028;-57
2023/04/20 05:40:12;;;;;;;27.70;21.48;;;4.10;98.50;;;;;;5071942;28;20108;-60
2023/04/20 05:42:38;;;;;;;28.75;22.13;;;4.10;98.90;;;;;;5072033;28;20115;-59
2023/04/20 05:45:04;;;;;;;26.65;17.45;;;4.10;98.10;;;;;;5072008;28;20108;-58
2023/04/20 05:47:30;;;;;;;24.90;17.80;;;4.10;98.50;;;;;;5071845;28;20461;-55
2023/04/20 05:49:55;;;;;;;24.33;17.73;;;4.10;99.00;;;;;;5070271;28;20158;-58
2023/04/20 05:52:21;;;;;;;25.85;16.23;;;4.10;98.30;;;;;;5071568;28;20024;-57
2023/04/20 05:54:48;;;;;;;23.05;16.10;;;4.20;98.20;;;;;;5071888;28;20039;-57
2023/04/20 05:57:14;;;;;;;20.40;16.35;;;4.20;98.10;;;;;;5071680;28;20139;-55
2023/04/20 05:59:40;;;;;;;21.25;15.77;;;4.20;98.40;;;;;;5071578;28;20127;-59
2023/04/20 06:02:07;;;;;;;21.58;15.70;;;4.30;98.10;;;;;;5071464;28;20048;-60
2023/04/20 06:04:32;;;;;;;21.65;16.58;;;4.30;98.00;;;;;;5071699;28;20047;-56
2023/04/20 06:06:59;;;;;;;20.25;15.70;;;4.40;98.20;;;;;;5071487;28;20024;-58
2023/04/20 06:09:25;;;;;;;21.45;16.05;;;4.40;98.20;;;;;;5071547;28;20036;-55
2023/04/20 06:11:51;;;;;;;21.50;15.27;;;4.40;97.80;;;;;;5071672;28;20024;-57
2023/04/20 06:14:16;;;;;;;24.48;17.13;;;4.40;97.50;;;;;;5071501;28;20042;-59
2023/04/20 06:16:42;;;;;;;25.70;19.65;;;4.50;97.80;;;;;;5071501;28;20028;-55
2023/04/20 06:19:08;;;;;;;23.27;18.65;;;4.40;97.70;;;;;;5071464;28;20124;-58
2023/04/20 06:21:35;;;;;;;36.80;28.45;;;4.40;97.80;;;;;;5071357;28;20067;-56
2023/04/20 06:24:00;;;;;;;41.47;27.08;;;4.50;98.50;;;;;;5071259;28;20017;-58
2023/04/20 06:26:26;;;;;;;30.90;22.67;;;4.60;98.00;;;;;;5071788;28;20361;-60
2023/04/20 06:28:52;;;;;;;34.28;22.67;;;4.50;97.40;;;;;;5071626;28;20025;-57
2023/04/20 06:31:18;;;;;;;39.05;28.70;;;4.60;98.30;;;;;;5071276;28;20035;-57
2023/04/20 06:33:44;;;;;;;133.77;83.43;;;4.70;98.70;;;;;;5071424;28;20032;-61
2023/04/20 06:36:10;;;;;;;57.25;38.70;;;4.60;98.70;;;;;;5071590;28;20025;-60
2023/04/20 06:38:36;;;;;;;95.68;58.85;;;4.80;99.40;;;;;;5071443;28;20035;-54
2023/04/20 06:41:02;;;;;;;81.70;53.30;;;4.90;98.20;;;;;;5071219;28;20023;-59
2023/04/20 06:43:31;;;;;;;99.25;64.05;;;4.90;97.70;;;;;;5071368;28;20021;-57
2023/04/20 06:45:56;;;;;;;308.52;190.30;;;4.90;98.10;;;;;;5073126;28;20353;-57
2023/04/20 06:48:22;;;;;;;255.32;159.85;;;4.90;97.20;;;;;;5075248;28;20067;-56
2023/04/20 06:50:49;;;;;;;141.50;91.55;;;4.90;97.20;;;;;;5075316;28;20020;-51
2023/04/20 06:53:15;;;;;;;128.10;78.80;;;5.00;98.00;;;;;;5075229;28;20051;-58
2023/04/20 06:55:41;;;;;;;377.10;217.75;;;5.00;97.90;;;;;;5075215;28;20028;-57
2023/04/20 06:58:06;;;;;;;306.50;166.55;;;5.00;97.60;;;;;;5074018;28;20035;-57
2023/04/20 07:00:32;;;;;;;170.25;106.57;;;5.00;98.10;;;;;;5075588;28;20033;-55
2023/04/20 07:02:58;;;;;;;138.38;85.53;;;5.20;98.40;;;;;;5075054;28;20688;-56
2023/04/20 07:05:24;;;;;;;108.13;64.65;;;5.20;97.50;;;;;;5075008;28;20078;-57
2023/04/20 07:07:50;;;;;;;41.50;28.05;;;5.20;97.00;;;;;;5075149;28;20025;-59
2023/04/20 07:10:16;;;;;;;37.22;27.00;;;5.20;97.60;;;;;;5074977;28;20047;-57
2023/04/20 07:12:43;;;;;;;36.75;26.05;;;5.40;98.40;;;;;;5074729;28;20029;-57
2023/04/20 07:15:10;;;;;;;31.98;22.95;;;5.40;96.90;;;;;;5074311;28;20016;-60
2023/04/20 07:17:35;;;;;;;30.45;22.77;;;5.40;97.10;;;;;;5074667;28;20035;-57
2023/04/20 07:20:04;;;;;;;31.02;21.73;;;5.40;96.00;;;;;;5076179;28;20032;-58
2023/04/20 07:22:30;;;;;;;34.42;22.48;;;5.30;97.40;;;;;;5074922;28;20035;-60
2023/04/20 07:24:56;;;;;;;35.83;19.27;;;5.50;97.70;;;;;;5074623;28;20020;-60
2023/04/20 07:27:22;;;;;;;27.02;18.63;;;5.60;97.00;;;;;;5074361;28;20098;-58
2023/04/20 07:29:47;;;;;;;29.38;19.98;;;5.50;96.30;;;;;;5074397;28;20447;-59
2023/04/20 07:32:13;;;;;;;29.42;21.90;;;5.40;97.50;;;;;;5073880;28;20070;-58
2023/04/20 07:34:39;;;;;;;33.60;21.88;;;5.20;99.00;;;;;;5074264;28;20029;-59
2023/04/20 07:37:04;;;;;;;43.38;23.70;;;5.30;99.30;;;;;;5074471;28;20399;-60
2023/04/20 07:39:30;;;;;;;48.10;31.15;;;5.30;99.90;;;;;;5074344;28;20035;-60
2023/04/20 07:41:56;;;;;;;93.85;54.67;;;5.30;99.90;;;;;;5074638;28;20024;-57
2023/04/20 07:44:22;;;;;;;76.78;46.25;;;5.30;99.90;;;;;;5074062;28;20093;-58
2023/04/20 07:46:48;;;;;;;48.05;29.20;;;5.30;99.90;;;;;;5074318;28;20025;-58
2023/04/20 07:49:14;;;;;;;68.47;37.92;;;5.30;99.90;;;;;;5074064;28;20012;-57
2023/04/20 07:51:40;;;;;;;59.83;38.78;;;5.30;99.90;;;;;;5074357;28;20123;-60
2023/04/20 07:54:07;;;;;;;51.88;31.92;;;5.40;99.90;;;;;;5074413;28;20131;-58
2023/04/20 07:56:32;;;;;;;57.38;32.53;;;5.50;99.90;;;;;;5071909;28;20029;-59
2023/04/20 07:58:58;;;;;;;53.65;34.28;;;5.60;99.90;;;;;;5073451;28;20032;-56
2023/04/20 08:01:24;;;;;;;70.13;42.92;;;5.50;99.90;;;;;;5073739;28;20174;-60
2023/04/20 08:03:51;;;;;;;56.38;35.55;;;5.50;99.90;;;;;;5073669;28;20077;-58
2023/04/20 08:06:16;;;;;;;58.10;36.97;;;5.60;99.90;;;;;;5073474;28;20156;-60
2023/04/20 08:08:42;;;;;;;66.40;40.83;;;5.60;99.90;;;;;;5075331;28;20111;-55
2023/04/20 08:11:08;;;;;;;120.57;77.53;;;5.60;99.90;;;;;;5073371;28;20039;-55
2023/04/20 08:13:35;;;;;;;119.85;77.80;;;5.60;99.60;;;;;;5073614;28;20107;-59
2023/04/20 08:16:01;;;;;;;74.07;47.88;;;5.60;99.90;;;;;;5073738;28;20100;-58
2023/04/20 08:18:26;;;;;;;63.85;39.53;;;5.50;99.30;;;;;;5073567;28;20583;-58
2023/04/20 08:20:52;;;;;;;63.17;42.83;;;5.50;99.90;;;;;;5073749;28;20372;-59
2023/04/20 08:23:17;;;;;;;122.20;76.20;;;5.50;99.60;;;;;;5073290;28;20032;-59
2023/04/20 08:25:43;;;;;;;112.15;70.47;;;5.50;99.80;;;;;;5073600;28;20033;-57
2023/04/20 08:28:09;;;;;;;72.68;46.78;;;5.50;99.90;;;;;;5073522;28;20024;-57
2023/04/20 08:30:34;;;;;;;82.80;45.67;;;5.60;99.90;;;;;;5072104;28;20333;-59
2023/04/20 08:33:01;;;;;;;249.10;131.70;;;5.50;99.80;;;;;;5073540;28;20104;-56
2023/04/20 08:35:27;;;;;;;163.52;84.72;;;5.50;99.90;;;;;;5073278;28;20029;-55
2023/04/20 08:37:53;;;;;;;132.65;75.18;;;5.60;99.90;;;;;;5073478;28;20021;-58
2023/04/20 08:40:19;;;;;;;72.85;40.28;;;5.50;99.00;;;;;;5072947;28;20704;-56
2023/04/20 08:42:45;;;;;;;37.55;25.70;;;5.60;99.30;;;;;;5072721;28;20078;-56
2023/04/20 08:45:11;;;;;;;36.55;21.52;;;5.70;98.80;;;;;;5072764;28;20021;-56
2023/04/20 08:47:39;;;;;;;33.40;21.17;;;5.70;98.10;;;;;;5073426;28;20082;-58
2023/04/20 08:50:06;;;;;;;30.05;19.75;;;5.90;97.10;;;;;;5073398;28;20024;-57
2023/04/20 08:52:34;;;;;;;30.73;21.30;;;5.90;96.20;;;;;;5072911;28;20054;-55
2023/04/20 08:55:00;;;;;;;36.47;22.70;;;5.90;96.20;;;;;;5071554;28;20487;-56
2023/04/20 08:57:26;;;;;;;35.08;21.67;;;6.00;96.60;;;;;;5071256;28;20028;-56
2023/04/20 08:59:52;;;;;;;30.65;21.00;;;6.00;97.20;;;;;;5072641;28;20040;-59
2023/04/20 09:02:17;;;;;;;35.47;21.50;;;6.00;96.90;;;;;;5072810;28;20676;-60
2023/04/20 09:04:47;;;;;;;33.22;22.60;;;6.00;97.10;;;;;;5091161;28;20024;-58
2023/04/20 09:07:17;;;;;;;47.90;32.55;;;6.00;97.20;;;;;;5093061;28;20037;-57
2023/04/20 09:09:54;;;;;;;30.95;21.05;;;6.10;96.90;;;;;;5087612;28;20013;-58
2023/04/20 09:12:19;;;;;;;27.50;21.38;;;6.20;95.60;;;;;;5072469;28;20040;-59
2023/04/20 09:14:47;;;;;;;24.27;17.73;;;6.30;95.60;;;;;;5070882;28;20404;-58
2023/04/20 09:17:16;;;;;;;24.10;18.17;;;6.30;95.00;;;;;;5072493;28;20055;-60
2023/04/20 09:19:52;;;;;;;22.88;16.65;;;6.30;92.20;;;;;;5072396;28;20387;-57
2023/04/20 09:22:29;;;;;;;23.10;15.18;;;6.40;92.30;;;;;;5072271;28;20033;-60
2023/04/20 09:24:54;;;;;;;22.25;15.20;;;6.50;91.30;;;;;;5072196;28;20024;-57
2023/04/20 09:27:22;;;;;;;23.13;16.63;;;6.60;90.30;;;;;;5072217;28;20528;-55
2023/04/20 09:30:02;;;;;;;23.90;16.67;;;6.80;91.00;;;;;;5071249;28;20059;-59
2023/04/20 09:32:28;;;;;;;22.80;16.70;;;6.90;91.10;;;;;;5072053;28;20481;-60
2023/04/20 09:34:54;;;;;;;25.15;16.13;;;7.00;85.10;;;;;;5071927;28;20032;-60
2023/04/20 09:37:21;;;;;;;21.48;16.20;;;7.00;88.90;;;;;;5072066;28;20492;-59
2023/04/20 09:39:47;;;;;;;25.63;18.52;;;6.90;85.80;;;;;;5072148;28;20025;-59
2023/04/20 09:42:15;;;;;;;22.75;15.32;;;6.90;85.00;;;;;;5072093;28;20078;-59
2023/04/20 09:44:42;;;;;;;19.60;15.07;;;7.10;90.00;;;;;;5071834;28;20017;-59
2023/04/20 09:47:08;;;;;;;25.33;16.85;;;7.30;86.70;;;;;;5071611;28;20023;-60
2023/04/20 09:49:34;;;;;;;23.95;16.40;;;7.40;82.80;;;;;;5071891;28;20027;-60
2023/04/20 09:52:04;;;;;;;23.00;17.13;;;7.50;82.40;;;;;;5073896;28;20020;-54
2023/04/20 09:54:30;;;;;;;19.98;14.85;;;7.70;77.70;;;;;;5091924;28;20027;-59
2023/04/20 09:56:58;;;;;;;22.90;16.83;;;8.00;67.20;;;;;;5091770;28;20475;-57
2023/04/20 09:59:26;;;;;;;18.17;14.70;;;8.00;73.30;;;;;;5091574;28;20069;-56
2023/04/20 10:01:52;;;;;;;24.67;15.35;;;8.10;60.40;;;;;;5091742;28;20044;-59
2023/04/20 10:04:18;;;;;;;20.20;14.70;;;8.10;70.50;;;;;;5086788;28;20077;-53
2023/04/20 10:06:55;;;;;;;19.30;15.45;;;8.30;65.70;;;;;;5071704;28;20028;-56
2023/04/20 10:09:24;;;;;;;23.38;17.10;;;7.90;70.90;;;;;;5090241;28;20016;-52
2023/04/20 10:11:51;;;;;;;26.35;15.77;;;8.00;68.10;;;;;;5091851;28;20036;-53
2023/04/20 10:14:18;;;;;;;20.25;15.93;;;8.00;63.20;;;;;;5091461;28;20028;-56
2023/04/20 10:16:45;;;;;;;25.70;16.65;;;8.00;76.50;;;;;;5091640;28;20106;-59
2023/04/20 10:19:12;;;;;;;25.92;19.20;;;7.80;80.90;;;;;;5091362;28;20024;-55
2023/04/20 10:21:48;;;;;;;38.92;24.73;;;8.00;78.60;;;;;;5084146;28;20376;-58
2023/04/20 10:24:15;;;;;;;48.83;24.60;;;8.00;73.90;;;;;;5090313;28;20643;-57
2023/04/20 10:26:43;;;;;;;28.45;20.63;;;8.00;76.30;;;;;;5091489;28;20421;-56
2023/04/20 10:29:11;;;;;;;23.33;18.02;;;8.00;69.90;;;;;;5091391;28;20370;-60
2023/04/20 10:31:40;;;;;;;25.98;20.17;;;8.10;68.70;;;;;;5091303;28;20020;-60
2023/04/20 10:34:07;;;;;;;22.20;17.17;;;8.10;68.30;;;;;;5081438;28;20041;-60
2023/04/20 10:36:36;;;;;;;23.85;18.83;;;8.00;76.50;;;;;;5040819;28;20029;-60
2023/04/20 10:39:19;;;;;;;25.50;17.52;;;8.00;72.90;;;;;;5040898;28;20476;-60
2023/04/20 10:42:00;;;;;;;21.63;16.75;;;8.20;69.60;;;;;;5040732;28;20044;-60
2023/04/20 10:44:26;;;;;;;21.75;16.15;;;8.20;72.80;;;;;;5040535;28;20112;-60
2023/04/20 10:46:53;;;;;;;21.85;17.13;;;8.40;69.40;;;;;;5040645;28;20421;-60
2023/04/20 10:49:24;;;;;;;22.25;15.18;;;8.80;58.50;;;;;;5040931;28;20037;-60
2023/04/20 10:51:51;;;;;;;20.40;15.55;;;8.90;44.90;;;;;;5040105;28;20087;-61
2023/04/20 10:54:18;;;;;;;21.58;16.98;;;9.10;58.50;;;;;;5043634;28;20368;-61
2023/04/20 10:56:44;;;;;;;19.42;15.18;;;9.50;46.70;;;;;;5041127;28;20094;-60
2023/04/20 10:59:18;;;;;;;16.92;13.85;;;9.30;24.60;;;;;;5040286;28;20041;-60
2023/04/20 11:01:45;;;;;;;20.35;14.93;;;9.40;28.40;;;;;;5041326;28;20112;-60
2023/04/20 11:04:12;;;;;;;20.85;15.52;;;9.40;31.50;;;;;;5040547;28;20033;-60
2023/04/20 11:06:39;;;;;;;19.77;14.77;;;9.50;41.20;;;;;;5040457;28;20116;-60
2023/04/20 11:09:17;;;;;;;20.20;14.50;;;9.60;24.10;;;;;;5040568;28;20074;-60
2023/04/20 11:11:43;;;;;;;20.80;15.65;;;9.70;25.50;;;;;;5040161;28;20119;-60
2023/04/20 11:14:10;;;;;;;17.23;14.35;;;9.60;9.90;;;;;;5040473;28;20116;-60
2023/04/20 11:16:36;;;;;;;20.08;14.98;;;9.50;20.30;;;;;;5038266;28;20570;-60
2023/04/20 11:19:03;;;;;;;22.60;15.32;;;9.60;18.00;;;;;;5040400;28;20487;-56
2023/04/20 11:21:37;;;;;;;19.50;15.60;;;9.60;26.60;;;;;;5040143;28;20029;-61
2023/04/20 11:24:05;;;;;;;20.30;15.20;;;9.70;33.20;;;;;;5041048;28;20037;-61
2023/04/20 11:26:37;;;;;;;20.15;14.95;;;10.00;12.10;;;;;;5045227;28;21467;-60
2023/04/20 11:29:03;;;;;;;21.67;15.65;;;9.90;14.90;;;;;;5070111;28;20024;-60
2023/04/20 11:31:29;;;;;;;19.55;15.88;;;9.90;2.00;;;;;;5071471;28;20029;-60
2023/04/20 11:33:55;;;;;;;19.85;15.98;;;10.00;2.60;;;;;;5074559;28;20026;-61
2023/04/20 11:36:25;;;;;;;22.05;16.50;;;10.00;14.20;;;;;;5072955;28;20020;-60
2023/04/20 11:38:51;;;;;;;20.63;15.43;;;9.90;21.20;;;;;;5074540;28;20021;-60
2023/04/20 11:41:17;;;;;;;20.50;16.58;;;10.00;25.40;;;;;;5074175;28;20024;-61
2023/04/20 11:43:43;;;;;;;21.63;16.08;;;10.00;30.40;;;;;;5074105;28;20559;-60
2023/04/20 11:46:17;;;;;;;22.67;16.67;;;10.20;45.40;;;;;;5074077;28;20021;-61
2023/04/20 11:48:43;;;;;;;18.58;14.80;;;10.60;19.60;;;;;;5074232;28;20031;-60
2023/04/20 11:51:09;;;;;;;21.35;16.35;;;10.80;1.00;;;;;;5073869;28;20077;-60
2023/04/20 11:53:35;;;;;;;18.73;14.80;;;11.00;11.50;;;;;;5073943;28;20013;-59
2023/04/20 11:56:00;;;;;;;23.08;16.10;;;11.10;1.00;;;;;;5072667;28;20070;-61
2023/04/20 11:58:26;;;;;;;16.85;13.70;;;11.30;1.00;;;;;;5073691;28;20528;-60
2023/04/20 12:00:52;;;;;;;20.75;13.88;;;11.30;12.10;;;;;;5073653;28;20550;-61
2023/04/20 12:03:17;;;;;;;21.38;12.85;;;11.30;1.00;;;;;;5073908;28;20050;-61
2023/04/20 12:05:43;;;;;;;17.13;14.05;;;11.60;1.00;;;;;;5074056;28;20360;-61
2023/04/20 12:08:09;;;;;;;18.02;14.30;;;11.80;1.00;;;;;;5073850;28;20036;-59
2023/04/20 12:10:35;;;;;;;17.65;12.40;;;12.50;1.00;;;;;;5073893;28;20039;-63
2023/04/20 12:13:00;;;;;;;21.33;12.23;;;12.70;1.00;;;;;;5073804;28;20032;-61
2023/04/20 12:15:26;;;;;;;20.08;12.23;;;13.10;1.00;;;;;;5073850;28;20458;-62
2023/04/20 12:17:52;;;;;;;13.50;11.25;;;13.60;1.00;;;;;;5073236;28;20033;-59
2023/04/20 12:20:18;;;;;;;18.02;11.10;;;14.20;99.90;;;;;;5073579;28;20029;-61
2023/04/20 12:22:44;;;;;;;15.35;12.15;;;14.40;99.90;;;;;;5073623;28;20020;-60
2023/04/20 12:25:10;;;;;;;13.93;12.07;;;14.30;75.80;;;;;;5073413;28;20035;-61
2023/04/20 12:27:36;;;;;;;17.90;11.93;;;13.40;99.90;;;;;;5072209;28;20704;-56
2023/04/20 12:30:02;;;;;;;13.15;11.23;;;13.50;1.00;;;;;;5072837;28;20020;-52
2023/04/20 12:32:28;;;;;;;14.40;12.00;;;13.40;1.00;;;;;;5072373;28;20078;-57